createdAt,value
2022-11-18T00:08:25.859Z,4.37
2022-11-18T00:23:28.108Z,3.79
2022-11-18T00:38:30.657Z,3.21
2022-11-18T00:53:33.211Z,3.21
2022-11-18T01:08:35.745Z,2.75
2022-11-18T01:23:38.240Z,2.31
2022-11-18T01:38:40.479Z,2.23
2022-11-18T01:53:42.721Z,2.39
2022-11-18T02:08:45.306Z,2.24
2022-11-18T02:23:47.766Z,2.16
2022-11-18T02:38:50.007Z,1.63
2022-11-18T02:53:52.310Z,1.38
2022-11-18T03:08:54.882Z,1.61
2022-11-18T03:23:57.143Z,1.4
2022-11-18T03:38:59.900Z,1.19
2022-11-18T03:54:02.148Z,0.85
2022-11-18T04:09:04.405Z,0.84
2022-11-18T04:24:06.747Z,0.32
2022-11-18T04:39:09.365Z,0.01
2022-11-18T04:54:11.713Z,0.37
2022-11-18T05:09:13.985Z,0.02
2022-11-18T05:24:16.971Z,0.29
2022-11-18T05:39:19.710Z,0.33
2022-11-18T05:54:22.269Z,0.49
2022-11-18T06:09:24.522Z,-0.06
2022-11-18T06:24:26.780Z,-0.2
2022-11-18T06:39:29.092Z,-0.58
2022-11-18T06:54:31.455Z,-0.09
2022-11-18T07:09:33.954Z,-0.1
2022-11-18T07:24:36.668Z,0.25
2022-11-18T07:39:38.911Z,0.5
2022-11-18T07:54:41.296Z,0.15
2022-11-18T08:09:43.556Z,0.41
2022-11-18T08:24:45.908Z,0.16
2022-11-18T08:39:48.192Z,-0.42
2022-11-18T08:54:50.622Z,0.19
2022-11-18T09:09:53.173Z,0.05
2022-11-18T09:24:55.395Z,-0.31
2022-11-18T09:39:58.216Z,-1.15
2022-11-18T09:55:00.900Z,-0.29
2022-11-18T10:10:03.232Z,-0.44
2022-11-18T10:25:05.762Z,-0.2
2022-11-18T10:40:08.728Z,-0.83
2022-11-18T10:55:11.378Z,-1.38
2022-11-18T11:10:13.780Z,-0.96
2022-11-18T11:25:16.692Z,-0.4
2022-11-18T11:40:19.076Z,-0.19
2022-11-18T11:55:21.310Z,-0.37
2022-11-18T12:10:23.726Z,-0.38
2022-11-18T12:25:26.026Z,-0.66
2022-11-18T12:40:28.539Z,-0.88
2022-11-18T12:55:31.300Z,-0.71
2022-11-18T13:10:33.637Z,-0.76
2022-11-18T13:25:35.830Z,-0.5
2022-11-18T13:40:38.224Z,-0.91
2022-11-18T13:55:40.568Z,-0.77
2022-11-18T14:10:42.888Z,-1
2022-11-18T14:25:45.171Z,-0.98
2022-11-18T14:40:47.717Z,-0.73
2022-11-18T14:55:49.988Z,-1.05
2022-11-18T15:10:52.214Z,-1.19
2022-11-18T15:25:54.478Z,-1.1
2022-11-18T15:40:56.929Z,-0.81
2022-11-18T15:55:59.134Z,-0.69
2022-11-18T16:11:01.397Z,-0.41
2022-11-18T16:26:03.839Z,-0.29
2022-11-18T16:41:06.235Z,-0.84
2022-11-18T16:56:08.486Z,-0.24
2022-11-18T17:11:10.701Z,-0.19
2022-11-18T17:26:13.014Z,0.12
2022-11-18T17:41:15.234Z,0.5
2022-11-18T17:56:17.617Z,0.3
2022-11-18T18:11:21.451Z,0.75
2022-11-18T18:26:28.284Z,1.26
2022-11-18T18:41:33.626Z,1.42
2022-11-18T18:56:35.872Z,2.08
2022-11-18T19:11:38.100Z,2.19
2022-11-18T19:26:40.389Z,2.77
2022-11-18T19:41:42.641Z,3.79
2022-11-18T19:56:44.830Z,4.64
2022-11-18T20:11:47.103Z,4.85
2022-11-18T20:26:49.434Z,4.21
2022-11-18T20:41:51.662Z,4.51
2022-11-18T20:56:53.907Z,3.49
2022-11-18T21:11:56.172Z,4.17
2022-11-18T21:26:58.459Z,5.13
2022-11-18T21:42:00.645Z,5
2022-11-18T21:57:02.861Z,4.63
2022-11-18T22:12:05.095Z,3.93
2022-11-18T22:27:11.306Z,2.8
2022-11-18T22:42:13.979Z,1.72
2022-11-18T22:57:16.226Z,1.7
2022-11-18T23:12:18.427Z,1.61
2022-11-18T23:27:20.655Z,2.33
2022-11-18T23:42:22.905Z,2.51
2022-11-18T23:57:25.166Z,2.11
